sensor_id;sensor_type;location;lat;lon;timestamp;pressure;altitude;pressure_sealevel;temperature;humidity
1926;BME280;964;42.606;23.588;2023-04-02T00:01:36;93671.97;;;23.37;30.87
1926;BME280;964;42.606;23.588;2023-04-02T00:04:16;93661.56;;;25.13;28.93
1926;BME280;964;42.606;23.588;2023-04-02T00:06:51;93666.66;;;24.30;29.05
1926;BME280;964;42.606;23.588;2023-04-02T00:09:30;93654.38;;;25.24;28.34
1926;BME280;964;42.606;23.588;2023-04-02T00:12:11;93639.97;;;25.71;27.61
1926;BME280;964;42.606;23.588;2023-04-02T00:14:45;93638.91;;;26.62;26.68
1926;BME280;964;42.606;23.588;2023-04-02T00:17:12;93631.72;;;27.20;25.96
1926;BME280;964;42.606;23.588;2023-04-02T00:19:43;93650.63;;;25.60;27.29
1926;BME280;964;42.606;23.588;2023-04-02T00:22:15;93637.66;;;26.43;26.48
1926;BME280;964;42.606;23.588;2023-04-02T00:24:43;93638.56;;;26.55;25.76
1926;BME280;964;42.606;23.588;2023-04-02T00:27:11;93627.41;;;26.88;25.52
1926;BME280;964;42.606;23.588;2023-04-02T00:29:44;93637.13;;;26.24;26.16
1926;BME280;964;42.606;23.588;2023-04-02T00:32:25;93629.84;;;26.71;25.95
1926;BME280;964;42.606;23.588;2023-04-02T00:34:53;93621.59;;;27.00;25.40
1926;BME280;964;42.606;23.588;2023-04-02T00:37:21;93625.72;;;26.75;26.04
1926;BME280;964;42.606;23.588;2023-04-02T00:39:55;93636.03;;;26.51;25.97
1926;BME280;964;42.606;23.588;2023-04-02T00:42:24;93646.50;;;26.58;25.90
1926;BME280;964;42.606;23.588;2023-04-02T00:44:52;93647.44;;;24.52;28.39
1926;BME280;964;42.606;23.588;2023-04-02T00:47:21;93662.09;;;24.04;29.71
1926;BME280;964;42.606;23.588;2023-04-02T00:49:52;93650.19;;;25.38;27.63
1926;BME280;964;42.606;23.588;2023-04-02T00:52:22;93658.75;;;24.09;29.36
1926;BME280;964;42.606;23.588;2023-04-02T00:55:00;93666.63;;;24.96;28.35
1926;BME280;964;42.606;23.588;2023-04-02T00:57:29;93655.97;;;24.36;28.89
1926;BME280;964;42.606;23.588;2023-04-02T00:59:59;93654.22;;;24.57;28.90
1926;BME280;964;42.606;23.588;2023-04-02T01:02:30;93657.97;;;25.07;28.09
1926;BME280;964;42.606;23.588;2023-04-02T01:04:59;93655.75;;;25.58;27.35
1926;BME280;964;42.606;23.588;2023-04-02T01:07:46;93655.16;;;25.01;27.92
1926;BME280;964;42.606;23.588;2023-04-02T01:10:26;93656.44;;;25.82;26.87
1926;BME280;964;42.606;23.588;2023-04-02T01:13:07;93659.78;;;25.10;27.86
1926;BME280;964;42.606;23.588;2023-04-02T01:15:40;93654.03;;;24.60;28.52
1926;BME280;964;42.606;23.588;2023-04-02T01:18:18;93656.44;;;25.53;27.47
1926;BME280;964;42.606;23.588;2023-04-02T01:21:18;93663.47;;;24.41;29.17
1926;BME280;964;42.606;23.588;2023-04-02T01:24:00;93661.69;;;24.95;28.43
1926;BME280;964;42.606;23.588;2023-04-02T01:26:42;93666.97;;;25.13;28.22
1926;BME280;964;42.606;23.588;2023-04-02T01:29:15;93676.34;;;25.79;27.55
1926;BME280;964;42.606;23.588;2023-04-02T01:31:45;93670.25;;;25.55;27.58
1926;BME280;964;42.606;23.588;2023-04-02T01:34:14;93674.31;;;26.04;26.78
1926;BME280;964;42.606;23.588;2023-04-02T01:36:48;93673.63;;;26.09;26.87
1926;BME280;964;42.606;23.588;2023-04-02T01:39:29;93675.72;;;25.99;26.88
1926;BME280;964;42.606;23.588;2023-04-02T01:42:04;93669.91;;;25.92;26.81
1926;BME280;964;42.606;23.588;2023-04-02T01:44:38;93667.94;;;25.24;27.61
1926;BME280;964;42.606;23.588;2023-04-02T01:47:09;93667.28;;;26.12;26.66
1926;BME280;964;42.606;23.588;2023-04-02T01:49:37;93672.09;;;25.49;27.16
1926;BME280;964;42.606;23.588;2023-04-02T01:52:05;93665.44;;;25.35;27.41
1926;BME280;964;42.606;23.588;2023-04-02T01:54:32;93665.47;;;25.12;27.82
1926;BME280;964;42.606;23.588;2023-04-02T01:56:59;93660.13;;;25.41;27.59
1926;BME280;964;42.606;23.588;2023-04-02T01:59:26;93664.50;;;25.00;28.04
1926;BME280;964;42.606;23.588;2023-04-02T02:01:59;93667.81;;;25.19;27.73
1926;BME280;964;42.606;23.588;2023-04-02T02:04:27;93674.66;;;25.29;27.23
1926;BME280;964;42.606;23.588;2023-04-02T02:06:55;93666.84;;;25.07;27.62
1926;BME280;964;42.606;23.588;2023-04-02T02:09:27;93660.25;;;25.61;26.77
1926;BME280;964;42.606;23.588;2023-04-02T02:11:56;93662.41;;;25.57;26.89
1926;BME280;964;42.606;23.588;2023-04-02T02:14:24;93664.00;;;25.25;27.26
1926;BME280;964;42.606;23.588;2023-04-02T02:16:52;93660.53;;;25.63;26.82
1926;BME280;964;42.606;23.588;2023-04-02T02:19:26;93653.44;;;25.80;26.62
1926;BME280;964;42.606;23.588;2023-04-02T02:21:55;93653.03;;;26.17;26.46
1926;BME280;964;42.606;23.588;2023-04-02T02:24:24;93645.97;;;25.37;27.38
1926;BME280;964;42.606;23.588;2023-04-02T02:27:02;93646.69;;;25.76;26.90
1926;BME280;964;42.606;23.588;2023-04-02T02:29:36;93645.56;;;26.26;26.46
1926;BME280;964;42.606;23.588;2023-04-02T02:32:06;93647.56;;;25.44;27.57
1926;BME280;964;42.606;23.588;2023-04-02T02:34:39;93643.50;;;25.77;27.13
1926;BME280;964;42.606;23.588;2023-04-02T02:37:12;93654.38;;;25.92;26.64
1926;BME280;964;42.606;23.588;2023-04-02T02:39:43;93653.81;;;25.73;27.06
1926;BME280;964;42.606;23.588;2023-04-02T02:42:13;93651.38;;;25.75;27.20
1926;BME280;964;42.606;23.588;2023-04-02T02:44:46;93655.06;;;25.49;27.51
1926;BME280;964;42.606;23.588;2023-04-02T02:47:17;93661.31;;;24.54;28.17
1926;BME280;964;42.606;23.588;2023-04-02T02:49:48;93666.00;;;24.03;29.59
1926;BME280;964;42.606;23.588;2023-04-02T02:52:18;93661.31;;;25.64;27.36
1926;BME280;964;42.606;23.588;2023-04-02T02:54:48;93660.53;;;24.86;28.17
1926;BME280;964;42.606;23.588;2023-04-02T02:57:19;93660.50;;;24.30;28.97
1926;BME280;964;42.606;23.588;2023-04-02T02:59:48;93648.41;;;24.73;28.67
1926;BME280;964;42.606;23.588;2023-04-02T03:02:17;93650.56;;;25.31;27.92
1926;BME280;964;42.606;23.588;2023-04-02T03:04:47;93644.84;;;25.67;27.55
1926;BME280;964;42.606;23.588;2023-04-02T03:07:15;93642.00;;;26.20;27.15
1926;BME280;964;42.606;23.588;2023-04-02T03:09:50;93642.84;;;26.61;26.49
1926;BME280;964;42.606;23.588;2023-04-02T03:12:34;93655.88;;;26.57;26.34
1926;BME280;964;42.606;23.588;2023-04-02T03:15:07;93658.41;;;26.26;26.82
1926;BME280;964;42.606;23.588;2023-04-02T03:17:40;93655.13;;;25.93;27.06
1926;BME280;964;42.606;23.588;2023-04-02T03:20:13;93665.97;;;24.54;28.62
1926;BME280;964;42.606;23.588;2023-04-02T03:22:45;93673.72;;;24.37;29.31
1926;BME280;964;42.606;23.588;2023-04-02T03:25:24;93672.84;;;25.35;27.74
1926;BME280;964;42.606;23.588;2023-04-02T03:27:57;93669.06;;;25.56;27.40
1926;BME280;964;42.606;23.588;2023-04-02T03:30:29;93667.63;;;25.46;27.53
1926;BME280;964;42.606;23.588;2023-04-02T03:32:59;93666.63;;;25.58;27.32
1926;BME280;964;42.606;23.588;2023-04-02T03:35:32;93662.13;;;25.99;27.04
1926;BME280;964;42.606;23.588;2023-04-02T03:38:03;93663.84;;;25.97;26.69
1926;BME280;964;42.606;23.588;2023-04-02T03:40:36;93667.66;;;25.75;27.06
1926;BME280;964;42.606;23.588;2023-04-02T03:43:13;93670.84;;;25.59;27.31
1926;BME280;964;42.606;23.588;2023-04-02T03:45:43;93680.78;;;24.67;28.45
1926;BME280;964;42.606;23.588;2023-04-02T03:48:14;93679.00;;;25.50;27.34
1926;BME280;964;42.606;23.588;2023-04-02T03:50:47;93674.22;;;25.07;27.60
1926;BME280;964;42.606;23.588;2023-04-02T03:53:17;93678.28;;;25.50;27.22
1926;BME280;964;42.606;23.588;2023-04-02T03:55:48;93682.44;;;25.36;27.39
1926;BME280;964;42.606;23.588;2023-04-02T03:58:19;93671.78;;;24.61;28.36
1926;BME280;964;42.606;23.588;2023-04-02T04:00:50;93673.69;;;25.03;27.80
1926;BME280;964;42.606;23.588;2023-04-02T04:03:21;93676.81;;;24.77;28.07
1926;BME280;964;42.606;23.588;2023-04-02T04:05:54;93667.47;;;25.26;27.46
1926;BME280;964;42.606;23.588;2023-04-02T04:08:24;93674.53;;;25.47;27.19
1926;BME280;964;42.606;23.588;2023-04-02T04:10:56;93670.66;;;25.63;27.11
1926;BME280;964;42.606;23.588;2023-04-02T04:13:28;93670.66;;;25.77;26.80
1926;BME280;964;42.606;23.588;2023-04-02T04:15:59;93678.88;;;25.68;26.72
1926;BME280;964;42.606;23.588;2023-04-02T04:18:33;93684.31;;;25.83;26.52
1926;BME280;964;42.606;23.588;2023-04-02T04:21:05;93676.81;;;25.63;26.63
1926;BME280;964;42.606;23.588;2023-04-02T04:23:37;93694.66;;;25.17;27.21
1926;BME280;964;42.606;23.588;2023-04-02T04:26:19;93680.38;;;25.55;26.65
1926;BME280;964;42.606;23.588;2023-04-02T04:28:55;93685.88;;;25.22;27.08
1926;BME280;964;42.606;23.588;2023-04-02T04:31:27;93696.28;;;25.76;26.48
1926;BME280;964;42.606;23.588;2023-04-02T04:33:58;93690.03;;;25.85;26.14
1926;BME280;964;42.606;23.588;2023-04-02T04:36:36;93687.88;;;25.74;26.48
1926;BME280;964;42.606;23.588;2023-04-02T04:39:21;93697.44;;;24.84;27.72
1926;BME280;964;42.606;23.588;2023-04-02T04:41:50;93710.25;;;24.83;27.72
1926;BME280;964;42.606;23.588;2023-04-02T04:44:21;93699.84;;;25.53;26.99
1926;BME280;964;42.606;23.588;2023-04-02T04:46:53;93703.03;;;25.81;26.76
1926;BME280;964;42.606;23.588;2023-04-02T04:49:24;93709.03;;;25.85;26.56
1926;BME280;964;42.606;23.588;2023-04-02T04:51:56;93706.28;;;25.32;26.90
1926;BME280;964;42.606;23.588;2023-04-02T04:54:26;93708.63;;;25.24;27.12
1926;BME280;964;42.606;23.588;2023-04-02T04:56:55;93701.50;;;25.65;26.52
1926;BME280;964;42.606;23.588;2023-04-02T04:59:26;93701.34;;;26.13;26.17
1926;BME280;964;42.606;23.588;2023-04-02T05:02:00;93701.25;;;25.63;26.68
1926;BME280;964;42.606;23.588;2023-04-02T05:04:31;93701.16;;;25.72;26.67
1926;BME280;964;42.606;23.588;2023-04-02T05:07:04;93695.53;;;25.76;26.79
1926;BME280;964;42.606;23.588;2023-04-02T05:09:35;93689.19;;;26.08;26.14
1926;BME280;964;42.606;23.588;2023-04-02T05:12:09;93685.31;;;26.94;25.77
1926;BME280;964;42.606;23.588;2023-04-02T05:14:44;93696.09;;;26.53;25.52
1926;BME280;964;42.606;23.588;2023-04-02T05:17:19;93684.00;;;27.29;24.64
1926;BME280;964;42.606;23.588;2023-04-02T05:19:50;93679.66;;;27.84;23.79
1926;BME280;964;42.606;23.588;2023-04-02T05:22:27;93693.56;;;27.65;24.41
1926;BME280;964;42.606;23.588;2023-04-02T05:25:00;93708.31;;;27.13;24.87
1926;BME280;964;42.606;23.588;2023-04-02T05:27:36;93697.28;;;28.14;24.03
1926;BME280;964;42.606;23.588;2023-04-02T05:30:10;93708.13;;;27.83;24.13
1926;BME280;964;42.606;23.588;2023-04-02T05:32:42;93701.91;;;27.56;24.70
1926;BME280;964;42.606;23.588;2023-04-02T05:35:14;93709.59;;;28.35;24.25
1926;BME280;964;42.606;23.588;2023-04-02T05:37:43;93695.75;;;28.39;24.49
1926;BME280;964;42.606;23.588;2023-04-02T05:40:13;93701.41;;;28.66;23.87
1926;BME280;964;42.606;23.588;2023-04-02T05:42:48;93713.72;;;28.56;24.00
1926;BME280;964;42.606;23.588;2023-04-02T05:48:26;93711.34;;;29.06;23.26
1926;BME280;964;42.606;23.588;2023-04-02T05:50:56;93714.56;;;29.05;23.32
1926;BME280;964;42.606;23.588;2023-04-02T05:53:27;93714.34;;;29.67;23.01
1926;BME280;964;42.606;23.588;2023-04-02T05:56:00;93716.22;;;30.26;22.43
1926;BME280;964;42.606;23.588;2023-04-02T05:58:31;93727.13;;;30.15;22.27
1926;BME280;964;42.606;23.588;2023-04-02T06:01:10;93719.41;;;29.97;22.08
1926;BME280;964;42.606;23.588;2023-04-02T06:03:45;93720.22;;;30.53;21.61
1926;BME280;964;42.606;23.588;2023-04-02T06:06:20;93726.91;;;30.69;21.67
1926;BME280;964;42.606;23.588;2023-04-02T06:08:54;93726.91;;;30.80;21.48
1926;BME280;964;42.606;23.588;2023-04-02T06:11:26;93729.41;;;31.00;21.92
1926;BME280;964;42.606;23.588;2023-04-02T06:13:54;93724.41;;;30.93;20.83
1926;BME280;964;42.606;23.588;2023-04-02T06:16:25;93717.97;;;30.85;21.55
1926;BME280;964;42.606;23.588;2023-04-02T06:18:52;93722.34;;;31.32;20.90
1926;BME280;964;42.606;23.588;2023-04-02T06:21:20;93720.41;;;30.94;21.34
1926;BME280;964;42.606;23.588;2023-04-02T06:23:53;93722.22;;;30.75;21.96
1926;BME280;964;42.606;23.588;2023-04-02T06:26:26;93714.44;;;31.12;21.01
1926;BME280;964;42.606;23.588;2023-04-02T06:28:58;93719.19;;;30.95;21.72
1926;BME280;964;42.606;23.588;2023-04-02T06:31:29;93721.91;;;30.28;22.09
1926;BME280;964;42.606;23.588;2023-04-02T06:34:00;93722.94;;;30.36;22.40
1926;BME280;964;42.606;23.588;2023-04-02T06:36:28;93719.88;;;31.23;21.61
1926;BME280;964;42.606;23.588;2023-04-02T06:39:00;93729.97;;;31.62;21.41
1926;BME280;964;42.606;23.588;2023-04-02T06:41:28;93727.06;;;31.95;21.27
1926;BME280;964;42.606;23.588;2023-04-02T06:43:57;93732.97;;;31.58;21.30
1926;BME280;964;42.606;23.588;2023-04-02T06:46:30;93729.06;;;31.89;20.38
1926;BME280;964;42.606;23.588;2023-04-02T06:49:02;93724.66;;;32.56;20.15
1926;BME280;964;42.606;23.588;2023-04-02T06:51:31;93727.88;;;32.25;20.30
1926;BME280;964;42.606;23.588;2023-04-02T06:54:00;93715.16;;;33.17;19.44
1926;BME280;964;42.606;23.588;2023-04-02T06:56:37;93716.56;;;33.48;19.57
1926;BME280;964;42.606;23.588;2023-04-02T06:59:05;93718.91;;;33.63;19.58
1926;BME280;964;42.606;23.588;2023-04-02T07:01:35;93715.28;;;33.49;19.57
1926;BME280;964;42.606;23.588;2023-04-02T07:04:02;93720.81;;;33.25;19.98
1926;BME280;964;42.606;23.588;2023-04-02T07:06:30;93721.66;;;33.63;19.50
1926;BME280;964;42.606;23.588;2023-04-02T07:08:56;93727.28;;;33.89;19.83
1926;BME280;964;42.606;23.588;2023-04-02T07:11:24;93723.91;;;34.20;20.08
1926;BME280;964;42.606;23.588;2023-04-02T07:13:51;93731.16;;;34.36;19.12
1926;BME280;964;42.606;23.588;2023-04-02T07:16:20;93735.78;;;33.72;20.50
1926;BME280;964;42.606;23.588;2023-04-02T07:18:47;93743.75;;;33.51;20.15
1926;BME280;964;42.606;23.588;2023-04-02T07:21:14;93738.97;;;33.95;19.38
1926;BME280;964;42.606;23.588;2023-04-02T07:23:41;93732.75;;;34.64;19.15
1926;BME280;964;42.606;23.588;2023-04-02T07:26:12;93734.34;;;35.17;19.03
1926;BME280;964;42.606;23.588;2023-04-02T07:28:40;93732.59;;;34.75;19.14
1926;BME280;964;42.606;23.588;2023-04-02T07:31:14;93741.97;;;34.47;19.19
1926;BME280;964;42.606;23.588;2023-04-02T07:33:42;93740.47;;;35.10;18.77
1926;BME280;964;42.606;23.588;2023-04-02T07:36:12;93736.41;;;34.98;19.00
1926;BME280;964;42.606;23.588;2023-04-02T07:38:39;93736.97;;;34.97;19.65
1926;BME280;964;42.606;23.588;2023-04-02T07:41:06;93744.69;;;33.97;20.29
1926;BME280;964;42.606;23.588;2023-04-02T07:43:33;93743.69;;;35.27;19.07
1926;BME280;964;42.606;23.588;2023-04-02T07:46:02;93747.25;;;36.14;18.38
1926;BME280;964;42.606;23.588;2023-04-02T07:48:29;93744.25;;;35.65;18.51
1926;BME280;964;42.606;23.588;2023-04-02T07:50:56;93743.22;;;36.15;18.71
1926;BME280;964;42.606;23.588;2023-04-02T07:53:27;93744.31;;;35.86;18.86
1926;BME280;964;42.606;23.588;2023-04-02T07:55:58;93742.66;;;36.51;17.98
1926;BME280;964;42.606;23.588;2023-04-02T07:58:26;93745.94;;;36.83;18.41
1926;BME280;964;42.606;23.588;2023-04-02T08:00:53;93743.19;;;36.49;18.55
1926;BME280;964;42.606;23.588;2023-04-02T08:03:21;93739.03;;;36.97;18.61
1926;BME280;964;42.606;23.588;2023-04-02T08:05:49;93744.69;;;36.50;18.86
1926;BME280;964;42.606;23.588;2023-04-02T08:08:17;93743.72;;;36.48;18.59
1926;BME280;964;42.606;23.588;2023-04-02T08:10:43;93736.59;;;37.71;17.53
1926;BME280;964;42.606;23.588;2023-04-02T08:13:10;93743.22;;;37.68;18.25
1926;BME280;964;42.606;23.588;2023-04-02T08:15:38;93739.50;;;37.58;17.61
1926;BME280;964;42.606;23.588;2023-04-02T08:18:04;93750.31;;;37.27;17.32
1926;BME280;964;42.606;23.588;2023-04-02T08:20:33;93751.28;;;37.30;17.05
1926;BME280;964;42.606;23.588;2023-04-02T08:22:59;93762.63;;;36.57;18.12
1926;BME280;964;42.606;23.588;2023-04-02T08:25:27;93756.09;;;37.58;17.74
1926;BME280;964;42.606;23.588;2023-04-02T08:27:54;93749.22;;;37.87;17.45
1926;BME280;964;42.606;23.588;2023-04-02T08:30:21;93752.53;;;37.86;17.42
1926;BME280;964;42.606;23.588;2023-04-02T08:32:47;93760.00;;;37.98;17.15
1926;BME280;964;42.606;23.588;2023-04-02T08:35:15;93753.72;;;37.98;17.11
1926;BME280;964;42.606;23.588;2023-04-02T08:37:43;93765.06;;;37.22;17.77
1926;BME280;964;42.606;23.588;2023-04-02T08:40:19;93751.09;;;38.36;16.98
1926;BME280;964;42.606;23.588;2023-04-02T08:42:58;93756.34;;;37.47;17.98
1926;BME280;964;42.606;23.588;2023-04-02T08:45:35;93752.00;;;38.31;16.99
1926;BME280;964;42.606;23.588;2023-04-02T08:48:08;93761.69;;;37.16;17.29
1926;BME280;964;42.606;23.588;2023-04-02T08:50:38;93755.56;;;37.39;17.72
1926;BME280;964;42.606;23.588;2023-04-02T08:53:11;93749.47;;;38.55;16.87
1926;BME280;964;42.606;23.588;2023-04-02T08:55:42;93749.88;;;38.74;16.74
1926;BME280;964;42.606;23.588;2023-04-02T08:58:20;93763.25;;;36.50;18.08
1926;BME280;964;42.606;23.588;2023-04-02T09:00:52;93748.28;;;38.20;17.56
1926;BME280;964;42.606;23.588;2023-04-02T09:03:26;93749.44;;;37.32;18.28
1926;BME280;964;42.606;23.588;2023-04-02T09:05:54;93756.34;;;37.47;17.48
1926;BME280;964;42.606;23.588;2023-04-02T09:08:24;93758.19;;;37.16;17.43
1926;BME280;964;42.606;23.588;2023-04-02T09:10:54;93744.38;;;37.72;17.84
1926;BME280;964;42.606;23.588;2023-04-02T09:13:24;93752.06;;;36.34;17.99
1926;BME280;964;42.606;23.588;2023-04-02T09:15:55;93745.88;;;37.81;17.12
1926;BME280;964;42.606;23.588;2023-04-02T09:18:27;93736.06;;;39.28;16.41
1926;BME280;964;42.606;23.588;2023-04-02T09:20:56;93735.84;;;39.71;16.29
1926;BME280;964;42.606;23.588;2023-04-02T09:23:26;93744.06;;;37.91;17.39
1926;BME280;964;42.606;23.588;2023-04-02T09:25:53;93735.00;;;39.93;16.44
1926;BME280;964;42.606;23.588;2023-04-02T09:28:20;93738.59;;;39.71;16.22
1926;BME280;964;42.606;23.588;2023-04-02T09:31:02;93724.94;;;41.02;14.55
1926;BME280;964;42.606;23.588;2023-04-02T09:33:41;93733.31;;;38.97;17.41
1926;BME280;964;42.606;23.588;2023-04-02T09:36:27;93731.44;;;39.45;16.30
1926;BME280;964;42.606;23.588;2023-04-02T09:39:03;93729.56;;;38.57;16.52
1926;BME280;964;42.606;23.588;2023-04-02T09:41:32;93740.50;;;36.98;16.50
1926;BME280;964;42.606;23.588;2023-04-02T09:44:17;93745.53;;;36.79;17.09
1926;BME280;964;42.606;23.588;2023-04-02T09:46:55;93731.03;;;38.73;16.48
1926;BME280;964;42.606;23.588;2023-04-02T09:49:26;93728.06;;;38.56;15.98
1926;BME280;964;42.606;23.588;2023-04-02T09:52:16;93719.06;;;39.23;14.94
1926;BME280;964;42.606;23.588;2023-04-02T09:54:45;93715.84;;;39.73;15.34
1926;BME280;964;42.606;23.588;2023-04-02T09:57:19;93715.56;;;40.33;15.19
1926;BME280;964;42.606;23.588;2023-04-02T10:00:15;93714.97;;;40.02;14.61
1926;BME280;964;42.606;23.588;2023-04-02T10:02:43;93710.75;;;40.34;15.52
1926;BME280;964;42.606;23.588;2023-04-02T10:05:17;93702.50;;;40.58;14.22
1926;BME280;964;42.606;23.588;2023-04-02T10:07:46;93709.53;;;39.72;15.78
1926;BME280;964;42.606;23.588;2023-04-02T10:10:27;93710.00;;;40.73;14.67
1926;BME280;964;42.606;23.588;2023-04-02T10:13:00;93701.25;;;40.04;14.97
1926;BME280;964;42.606;23.588;2023-04-02T10:15:32;93708.09;;;39.56;15.23
1926;BME280;964;42.606;23.588;2023-04-02T10:18:06;93695.34;;;40.73;14.98
1926;BME280;964;42.606;23.588;2023-04-02T10:20:38;93697.53;;;40.74;15.31
1926;BME280;964;42.606;23.588;2023-04-02T10:23:11;93697.19;;;40.13;14.71
1926;BME280;964;42.606;23.588;2023-04-02T10:25:46;93702.69;;;39.65;15.36
1926;BME280;964;42.606;23.588;2023-04-02T10:28:24;93710.25;;;37.42;16.38
1926;BME280;964;42.606;23.588;2023-04-02T10:30:59;93711.75;;;36.52;16.58
1926;BME280;964;42.606;23.588;2023-04-02T10:33:31;93705.03;;;37.30;16.10
1926;BME280;964;42.606;23.588;2023-04-02T10:36:07;93713.38;;;35.40;18.12
1926;BME280;964;42.606;23.588;2023-04-02T10:38:41;93721.03;;;35.74;17.34
1926;BME280;964;42.606;23.588;2023-04-02T10:41:28;93713.91;;;35.26;17.93
1926;BME280;964;42.606;23.588;2023-04-02T10:49:47;93699.88;;;37.34;17.17
1926;BME280;964;42.606;23.588;2023-04-02T10:52:19;93706.75;;;38.20;16.11
1926;BME280;964;42.606;23.588;2023-04-02T10:54:50;93698.16;;;39.38;14.69
1926;BME280;964;42.606;23.588;2023-04-02T10:57:26;93685.06;;;39.31;14.20
1926;BME280;964;42.606;23.588;2023-04-02T10:59:59;93691.38;;;38.93;14.81
1926;BME280;964;42.606;23.588;2023-04-02T11:02:36;93685.13;;;39.78;14.72
1926;BME280;964;42.606;23.588;2023-04-02T11:05:13;93676.13;;;40.02;14.79
1926;BME280;964;42.606;23.588;2023-04-02T11:07:50;93676.16;;;39.95;14.57
1926;BME280;964;42.606;23.588;2023-04-02T11:10:19;93677.94;;;40.07;14.74
1926;BME280;964;42.606;23.588;2023-04-02T11:12:51;93690.03;;;38.64;15.47
1926;BME280;964;42.606;23.588;2023-04-02T11:15:21;93673.75;;;39.44;15.31
1926;BME280;964;42.606;23.588;2023-04-02T11:17:48;93671.94;;;39.08;15.19
1926;BME280;964;42.606;23.588;2023-04-02T11:23:26;93675.06;;;39.90;14.64
1926;BME280;964;42.606;23.588;2023-04-02T11:26:26;93671.97;;;40.51;14.04
1926;BME280;964;42.606;23.588;2023-04-02T11:29:05;93678.97;;;38.64;15.33
1926;BME280;964;42.606;23.588;2023-04-02T11:31:34;93680.06;;;39.06;15.16
1926;BME280;964;42.606;23.588;2023-04-02T11:34:01;93671.50;;;39.50;15.22
1926;BME280;964;42.606;23.588;2023-04-02T11:36:59;93670.44;;;37.73;16.18
1926;BME280;964;42.606;23.588;2023-04-02T11:39:49;93670.47;;;37.88;15.95
1926;BME280;964;42.606;23.588;2023-04-02T11:42:24;93670.66;;;38.79;15.07
1926;BME280;964;42.606;23.588;2023-04-02T11:44:54;93668.63;;;38.72;14.65
1926;BME280;964;42.606;23.588;2023-04-02T11:47:22;93659.78;;;40.71;14.40
1926;BME280;964;42.606;23.588;2023-04-02T11:50:04;93648.78;;;41.74;13.42
1926;BME280;964;42.606;23.588;2023-04-02T11:52:34;93657.28;;;40.83;14.19
1926;BME280;964;42.606;23.588;2023-04-02T11:55:23;93655.16;;;41.67;13.66
1926;BME280;964;42.606;23.588;2023-04-02T12:01:01;93657.53;;;40.20;14.21
1926;BME280;964;42.606;23.588;2023-04-02T12:03:49;93656.13;;;41.10;14.02
1926;BME280;964;42.606;23.588;2023-04-02T12:06:26;93639.88;;;42.02;13.54
1926;BME280;964;42.606;23.588;2023-04-02T12:09:06;93642.31;;;41.89;14.17
1926;BME280;964;42.606;23.588;2023-04-02T12:11:39;93635.59;;;41.75;14.15
1926;BME280;964;42.606;23.588;2023-04-02T12:14:29;93634.13;;;41.39;14.63
1926;BME280;964;42.606;23.588;2023-04-02T12:16:58;93645.81;;;41.21;14.26
1926;BME280;964;42.606;23.588;2023-04-02T12:19:26;93635.09;;;41.69;14.16
1926;BME280;964;42.606;23.588;2023-04-02T12:21:55;93631.38;;;42.00;14.05
1926;BME280;964;42.606;23.588;2023-04-02T12:24:25;93632.63;;;42.17;13.10
1926;BME280;964;42.606;23.588;2023-04-02T12:27:06;93633.00;;;41.59;13.79
1926;BME280;964;42.606;23.588;2023-04-02T12:29:39;93644.44;;;40.38;14.52
1926;BME280;964;42.606;23.588;2023-04-02T12:32:19;93647.63;;;39.54;14.46
1926;BME280;964;42.606;23.588;2023-04-02T12:34:46;93643.09;;;39.27;14.98
1926;BME280;964;42.606;23.588;2023-04-02T12:37:20;93647.94;;;39.03;14.53
1926;BME280;964;42.606;23.588;2023-04-02T12:39:55;93635.91;;;40.43;13.59
1926;BME280;964;42.606;23.588;2023-04-02T12:42:27;93626.81;;;41.95;12.94
1926;BME280;964;42.606;23.588;2023-04-02T12:44:54;93632.47;;;42.15;13.47
1926;BME280;964;42.606;23.588;2023-04-02T12:47:23;93628.59;;;43.10;12.55
1926;BME280;964;42.606;23.588;2023-04-02T12:49:51;93636.72;;;42.16;13.82
1926;BME280;964;42.606;23.588;2023-04-02T12:52:20;93629.59;;;41.95;12.84
1926;BME280;964;42.606;23.588;2023-04-02T12:54:50;93629.16;;;42.98;12.78
1926;BME280;964;42.606;23.588;2023-04-02T12:57:27;93622.84;;;41.98;12.49
1926;BME280;964;42.606;23.588;2023-04-02T12:59:57;93622.03;;;42.32;13.24
1926;BME280;964;42.606;23.588;2023-04-02T13:02:27;93619.59;;;42.19;12.71
1926;BME280;964;42.606;23.588;2023-04-02T13:04:55;93623.06;;;41.83;12.93
1926;BME280;964;42.606;23.588;2023-04-02T13:07:26;93620.81;;;41.55;13.52
1926;BME280;964;42.606;23.588;2023-04-02T13:09:54;93612.53;;;42.45;12.61
1926;BME280;964;42.606;23.588;2023-04-02T13:12:26;93611.25;;;41.92;13.63
1926;BME280;964;42.606;23.588;2023-04-02T13:14:58;93615.66;;;41.34;12.53
1926;BME280;964;42.606;23.588;2023-04-02T13:17:38;93632.31;;;39.93;13.79
1926;BME280;964;42.606;23.588;2023-04-02T13:20:27;93637.16;;;38.01;14.67
1926;BME280;964;42.606;23.588;2023-04-02T13:22:55;93633.91;;;39.64;14.65
1926;BME280;964;42.606;23.588;2023-04-02T13:25:27;93630.00;;;39.12;14.55
1926;BME280;964;42.606;23.588;2023-04-02T13:27:54;93638.09;;;38.26;15.01
1926;BME280;964;42.606;23.588;2023-04-02T13:30:23;93634.38;;;38.01;15.05
1926;BME280;964;42.606;23.588;2023-04-02T13:32:51;93616.47;;;39.79;14.85
1926;BME280;964;42.606;23.588;2023-04-02T13:35:18;93623.50;;;40.69;13.79
1926;BME280;964;42.606;23.588;2023-04-02T13:37:45;93602.06;;;41.99;13.14
1926;BME280;964;42.606;23.588;2023-04-02T13:40:14;93599.75;;;42.05;12.38
1926;BME280;964;42.606;23.588;2023-04-02T13:42:42;93610.31;;;41.63;12.67
1926;BME280;964;42.606;23.588;2023-04-02T13:45:19;93605.50;;;42.44;12.88
1926;BME280;964;42.606;23.588;2023-04-02T13:47:47;93604.75;;;42.89;11.92
1926;BME280;964;42.606;23.588;2023-04-02T13:50:17;93607.38;;;42.32;13.08
1926;BME280;964;42.606;23.588;2023-04-02T13:52:45;93606.16;;;41.98;12.82
1926;BME280;964;42.606;23.588;2023-04-02T13:55:12;93605.34;;;41.44;13.08
1926;BME280;964;42.606;23.588;2023-04-02T13:57:40;93625.84;;;37.92;14.44
1926;BME280;964;42.606;23.588;2023-04-02T14:00:07;93630.75;;;37.63;14.98
1926;BME280;964;42.606;23.588;2023-04-02T14:02:38;93628.03;;;39.60;13.79
1926;BME280;964;42.606;23.588;2023-04-02T14:05:19;93620.91;;;39.19;14.22